AirNav   BOSE A20 Aviation Headset
 
 1082 users online  

O53 Medford Municipal Airport
Medford, Oklahoma, USA

GOING TO MEDFORD?


FAA INFORMATION EFFECTIVE 24 MAY 2018

Location

FAA Identifier: O53
Lat/Long: 36-47-26.1030N / 097-44-56.3900W
36-47.435050N / 097-44.939833W
36.7905842 / -97.7489972
(estimated)
Elevation: 1092 ft. / 332.8 m (surveyed)
Variation: 05E (2005)
From city: 1 mile SW of MEDFORD, OK
Time zone: UTC -5 (UTC -6 during Standard Time)
Zip code: 73759

Airport Operations

Airport use: Open to the public
Activation date: 03/1948
Control tower: no
ARTCC: KANSAS CITY CENTER
FSS: MC ALESTER FLIGHT SERVICE STATION
NOTAMs facility: MLC (NOTAM-D service available)
Attendance: IREG
Wind indicator: lighted
Segmented circle: yes
Lights: DUSK-DAWN ACTVT MIRL RY 17/35 - CTAF.
Beacon: white-green (lighted land airport)
Operates sunset to sunrise.

Airport Communications

CTAF/UNICOM: 122.8
VANCE APPROACH: 118.075
VANCE DEPARTURE: 118.075
WX AWOS-3 at BKN (19 nm E): 120.575 (580-363-0688)
  • APCH/DEP SVC PRVDD BY KANSAS CITY ARTCC ON FREQS 127.8/319.1 (PONCA CITY RCAG) WHEN VANCE APCH CTL CLSD.

Nearby radio navigation aids

VOR radial/distance  VOR name  Freq  Var
ODGr356/25.1WOODRING VOR/DME109.0008E
ENDr012/28.0VANCE VORTAC115.4005E
PERr269/28.4PIONEER VORTAC113.2006E
ANYr131/30.0ANTHONY VORTAC112.9007E

Airport Services

Fuel available: 100LL
FOR FUEL CALL ARPT ATTENDANT 580-395-3176 OR SHERIFF'S OFFICE 580-395-2356.
Parking: hangars and tiedowns
Airframe service: NONE
Powerplant service: NONE
Bottled oxygen: NONE
Bulk oxygen: NONE

Runway Information

Runway 17/35

Dimensions: 3007 x 60 ft. / 917 x 18 m
Surface: asphalt, in fair condition
Weight bearing capacity: 
Single wheel: 13.0
Runway edge lights: medium intensity
RUNWAY 17  RUNWAY 35
Latitude: 36-47.682800N36-47.187317N
Longitude: 097-44.939367W097-44.940900W
Elevation: 1092.0 ft.1085.0 ft.
Gradient: 0.2%0.2%
Traffic pattern: leftleft
Runway heading: 175 magnetic, 180 true355 magnetic, 360 true
Markings: nonprecision, in good conditionnonprecision, in good condition
Visual slope indicator: 2-light PAPI on left (3.51 degrees glide path)2-light PAPI on left (3.51 degrees glide path)
Touchdown point: yes, no lightsyes, no lights

Airport Ownership and Management from official FAA records

Ownership: Publicly-owned
Owner: CITY OF MEDFORD
615 N. FRONT ST.
MEDFORD, OK 73759
Phone 580-395-2875
Manager: DEA MANDEVILL
615 N. FRONT ST., PO BOX 123
MEDFORD, OK 73759
Phone 580-395-2875
CITY MANAGER.

Airport Operational Statistics

Aircraft based on the field: 9
Single engine airplanes: 9
    
Aircraft operations: avg 83/month *
60% local general aviation
40% transient general aviation
* for 12-month period ending 30 March 2016

Additional Remarks

100 FT REFINERY 1 NM SW OF ARPT.

Instrument Procedures

NOTE: All procedures below are presented as PDF files. If you need a reader for these files, you should download the free Adobe Reader.

NOT FOR NAVIGATION. Please procure official charts for flight.
FAA instrument procedures published for use from 24 May 2018 at 0901Z to 21 June 2018 at 0900Z.

 
IAPs - Instrument Approach Procedures
RNAV (GPS) RWY 17   download (128KB)
RNAV (GPS) RWY 35   download (134KB)

Other nearby airports with instrument procedures:

KBKN - Blackwell-Tonkawa Municipal Airport (19 nm E)
KWDG - Enid Woodring Regional Airport (25 nm S)
KANY - Anthony Municipal Airport (27 nm NW)
KEND - Vance Air Force Base (28 nm S)
KPNC - Ponca City Regional Airport (31 nm E)
 
Loc | Ops | Rwys | IFR | FBO | Links
Com | Nav | Svcs | Stats | Notes

AirNav Hotels Sweepstakes
 
Area around O53 (Medford Municipal Airport)
 
Road maps at: MapQuest Bing Google
 
Aerial photo
WARNING: Photo may not be current or correct
Aerial photo of O53 (Medford Municipal Airport)
Do you have a better or more recent aerial photo of Medford Municipal Airport that you would like to share? If so, please send us your photo.

 
Sectional chart

 
Airport distance calculator
Flying to Medford Municipal Airport? Find the distance to fly.

From to O53

Sunrise and sunset
Times for 25-May-2018
 Local
(UTC-5)
 Zulu
(UTC)
Morning civil twilight05:4810:48
Sunrise06:1811:18
Sunset20:3801:38
Evening civil twilight21:0802:08

Current date and time
Zulu (UTC)  25-May-2018 13:05:31
Local (UTC-5)  25-May-2018 08:05:31
 
METAR
KBKN 
19nm E 
251255Z AUTO 14010G16KT 10SM FEW047 SCT065 BKN120 18/18 A2994 RMK AO2 LTG DSNT S
KWDG 
25nm S 
251250Z 14012KT 10SM -TSRA BKN110CB OVC150 17/17 A2991 RMK FREQ LTGICCCCG OHD TS OHD MOV SE
KEND 
30nm S 
251218Z 32004KT 2SM +RA BR VCTS OVC035 18/16 A3000 RMK AO2A TSE18 SLP152 $
KPNC 
31nm E 
251253Z AUTO VRB06G15KT 10SM CLR 19/16 A2997 RMK AO2 LTG DSNT S AND SW SLP137 T01890156
8K2 
32nm NW 
SuperAWOS
251155Z AUTO 00000KT 10SM 18/16 A2996
TAF
KEND 
30nm S 
2501/2524 17015KT 9999 SCT070 QNH2990INS BECMG 2514/2515 21015G20KT 9999 -SHRA BKN070 QNH2988INS BECMG 2518/2519 25012G18KT 8000 -TSRA SCT050 BKN080CB QNH2980INS BECMG 2523/2524 09015G20KT 9999 NSW FEW040 SCT060 OVC080 QNH2975INS TX25/2501Z TN22/2511Z LAST NO AMDS AFT 2501 NEXT 2910
KPNC 
31nm E 
251120Z 2512/2612 17004KT P6SM VCTS BKN080CB BKN100 OVC150 TEMPO 2512/2514 6SM -TSRA FM251400 18009KT P6SM SCT080 SCT150 BKN200 FM252300 16008KT P6SM VCTS SCT080CB SCT250 PROB30 2523/2602 5SM -TSRA BKN070CB
NOTAMs
Click for the latest NOTAMs
NOTAMs are issued by the DoD/FAA and will open in a separate window not controlled by AirNav.

 

 
 

FBO, Fuel Providers, and Aircraft Ground Support

  
 Business Name 
 
 Contact 
 
 Services / Description 
 
Fuel Prices
 
Comments
  
Andy Deterding Ag Aviation 580-532-4483
no information available

If you are affiliated with Andy Deterding Ag Aviation and would like to show here your services, contact info, web link, logo, and more, click here
100LL
SS $4.25 
 Updated 06-May-2015
 
   write
SS=Self service
Update Fuel Prices
 

Would you like to see your business listed on this page?

 If your business provides an interesting product or service to pilots, flight crews, aircraft, or users of the Medford Municipal Airport, you should consider listing it here.  To start the listing process, click on the button below
 
Add a business
 

Other Pages about Medford Municipal Airport

Update a link
 
Copyright © AirNav, LLC. All rights reserved. Privacy Policy  Contact